Relevés horaires Semmerzake (Belgique)


Relevés horaires à Semmerzake - Mercredi 07 Juill. 2021
Heure UTC1 Température [°C] Vent [km/h] Hum. [%] Pres.4 [hPa] Visi. [Km] Nébu. [octa] Préc.5 [mm] Cond.
2m. Res. Ros. Dir.2 Vit. Moy. Raf.3
23:00 15.0 15.0 13.4 NNO 1.9 -- 3.7 90 1018.6(1.1/3h) 12 -- -- --
20:00 16.7 16.7 14.1 N 3.7 -- 5.6 85 1017.3(1.4/3h) 16 -- -- --
19:00 18.4 18.4 14.1 N 3.7 -- 7.4 76 1016.7(0.9/3h) 20 -- -- --
18:00 21.2 21.2 12.4 SO 3.7 -- 13.0 57 1016.2(0.5/3h) 20 -- -- --
17:00 20.8 20.8 12.6 SO 3.7 -- 11.1 59 1015.8(0.5/3h) 20 -- -- --
16:00 20.2 20.2 12.3 S 7.4 -- 13.0 60 1015.7(0.4/3h) 20 -- -- --
15:00 20.9 20.9 12.9 S 5.6 -- 13.0 60 1015.6(0.4/3h) 20 -- -- --
14:00 21.1 21.1 12.3 SO 5.6 -- 13.0 57 1015.2(0.5/3h) 20 -- -- --
13:00 20.8 20.8 13.1 SSO 5.6 -- 13.0 61 1015.3(0.8/3h) 20 -- -- --
12:00 19.4 19.4 13.1 SSO 5.6 -- 16.7 67 1015.1(1.0/3h) 20 -- -- NA
11:00 19.1 19.1 12.6 SSO 9.3 -- 16.7 66 1014.7(1.1/3h) 20 -- -- --
10:00 19.6 19.6 13.0 SSO 7.4 -- 14.8 66 1014.5(1.5/3h) 20 -- -- --
09:00 18.4 18.4 13.1 SSO 7.4 -- 14.8 71 1014(1.6/3h) 20 -- -- NA
08:00 16.8 16.8 13.2 SSO 7.4 -- 13.0 79 1013.6(1.7/3h) 20 -- -- --
07:00 16.3 16.3 13.2 SSO 5.6 -- 11.1 82 1013(1.5/3h) 18 -- -- --
06:00 15.8 15.8 12.8 SSO 7.4 -- 13.0 82 1012.3(1.2/3h) 19 -- -- NA
05:00 14.9 14.9 12.6 SSO 5.6 -- 9.3 86 1011.8(0.7/3h) 20 -- -- --
04:00 14.6 14.6 12.6 S 5.6 -- 9.3 88 1011.3(0.2/3h) 20 -- -- --
03:00 14.6 14.6 12.5 S 3.7 -- 9.3 87 1011(0.1/3h) 20 -- -- NA
02:00 14.4 14.4 12.3 S 3.7 -- 9.3 87 1011.1(0.0/3h) 20 -- -- NA
01:00 15.0 15.0 12.4 S 5.6 -- 9.3 84 1011(0.0/3h) 20 -- -- --
00:00 14.3 14.3 12.1 SSE 3.7 -- 16.7 87 1011.1(0.1/3h) 20 -- -- NA

1 Coordinated Universal Time. Actuellement il est 21:00 locale et 19:00 UTC.

2 Le vent souffle depuis la direction indiquée vers la direction oposée.

3 Les rafales max. sont disponible 40 min après l'heure du relevé.

4 Pour les stations d'altitude (plus de 600m) le géopotentiel du niveau le plus proche de la pression obligatoire est indiqué.

5 Les stations disposant d'un diffuseur peuvent indiquer "trace". Cela signifie que des précipitations ont touchés le sol mais que la quantité est inférieure à 0.1 mm.

Récapitulatif de la journée
Température [°C] Vent [km/h] Ensoleillement4 [h] Precipitations totale5 [mm] Pression [Hpa]
Min1 Max.2 Moy.3 Max. Min Max.
14.1 21.9 0 16.7 0 h 0 min 0 1011.0 1018.6

1 Température minimale relevée entre 18:00 UTC la veille et 18:00 UTC le jour donné.

2 Température maximale relevée entre 06:00 UTC le jour donné et 06:00 UTC le lendemain.

3 Vent moyen de la journée basé sur les relevés horaires.

4 Ensoleillement en heures relevé entre 06:00 UTC la veille et 06:00 UTC le jour donné.

5 Précipitations totales tombées entre 06:00 UTC la jour donné et 06:00 UTC le lendemain.

Graphiques horaires